Oviedo, Florida
Current Conditions -  °F | °C
As of 10:53 AM on Sunday 23 Nov 2014 (Local Time) from KSFB Reporting Station
Overcast Overcast  
Wind Chill: 78°   Ceiling: 1800
Heat Index: 80°   Visibility: 10mi
Dew Point: 72°   Wind: 10mph
Humidity: 81%   Direction: 180°S
Pressure: 30.01"   Gusts: NA
Location:  28.65°N, 81.2°W
Report Text: KSFB 231553Z 18009KT 10SM OVC018 26/22 A3001 RMK AO2 SLP161 T02560222
Loading
Personal Weather Stations






























Interactive Weather Map New forecast layout! Learn more

10-Day Weather Forecast

Advertisements
Track Severe Weather on mobile